createdAt,value
2022-10-24T00:04:22.068Z,62.72
2022-10-24T00:09:25.964Z,64.22
2022-10-24T00:14:29.025Z,63.04
2022-10-24T00:19:31.581Z,61.03
2022-10-24T00:24:35.491Z,60.63
2022-10-24T00:29:38.049Z,62.96
2022-10-24T00:34:40.871Z,63.93
2022-10-24T00:39:44.829Z,64.24
2022-10-24T00:44:49.477Z,64.44
2022-10-24T00:50:00.533Z,64.39
2022-10-24T00:55:06.517Z,64.15
2022-10-24T01:00:11.898Z,65.71
2022-10-24T01:05:15.127Z,65.72
2022-10-24T01:10:29.000Z,67.21
2022-10-24T01:15:37.600Z,67.27
2022-10-24T01:20:55.763Z,67.45
2022-10-24T01:26:12.037Z,67.84
2022-10-24T01:31:18.737Z,67.89
2022-10-24T01:36:26.447Z,68.94
2022-10-24T01:41:30.169Z,70.47
2022-10-24T01:46:37.183Z,71.38
2022-10-24T01:51:40.772Z,72.45
2022-10-24T01:56:43.351Z,75.35
2022-10-24T02:01:47.321Z,79.08
2022-10-24T02:06:50.333Z,84.78
2022-10-24T02:11:54.158Z,88.24
2022-10-24T02:16:58.035Z,88.95
2022-10-24T02:22:04.832Z,87.45
2022-10-24T02:27:09.240Z,93.98
2022-10-24T02:32:17.642Z,100.00
2022-10-24T02:37:20.431Z,100.00
2022-10-24T02:42:23.742Z,100.00
2022-10-24T02:47:28.302Z,100.00
2022-10-24T02:52:31.324Z,100.00
2022-10-24T02:57:34.122Z,100.00
2022-10-24T03:02:38.037Z,100.00
2022-10-24T03:07:40.677Z,100.00
2022-10-24T03:12:43.575Z,100.00
2022-10-24T03:17:49.079Z,100.00
2022-10-24T03:22:51.946Z,100.00
2022-10-24T03:27:54.572Z,100.00
2022-10-24T03:32:58.444Z,100.00
2022-10-24T03:38:01.007Z,100.00
2022-10-24T03:43:03.980Z,100.00
2022-10-24T03:48:08.011Z,100.00
2022-10-24T03:53:10.673Z,100.00
2022-10-24T03:58:13.259Z,100.00
2022-10-24T04:03:17.202Z,100.00
2022-10-24T04:08:19.859Z,100.00
2022-10-24T04:13:22.560Z,100.00
2022-10-24T04:18:26.553Z,100.00
2022-10-24T04:23:30.830Z,100.00
2022-10-24T04:28:33.372Z,100.00
2022-10-24T04:33:37.347Z,100.00
2022-10-24T04:38:39.887Z,100.00
2022-10-24T04:43:42.522Z,100.00
2022-10-24T04:48:46.499Z,100.00
2022-10-24T04:53:49.129Z,100.00
2022-10-24T04:58:51.775Z,100.00
2022-10-24T05:03:55.760Z,100.00
2022-10-24T05:08:58.398Z,100.00
2022-10-24T05:14:00.966Z,100.00
2022-10-24T05:19:04.873Z,100.00
2022-10-24T05:24:07.720Z,100.00
2022-10-24T05:29:10.320Z,100.00
2022-10-24T05:34:14.300Z,100.00
2022-10-24T05:39:16.889Z,100.00
2022-10-24T05:44:19.597Z,100.00
2022-10-24T05:49:24.655Z,100.00
2022-10-24T05:54:33.301Z,100.00
2022-10-24T05:59:45.256Z,100.00
2022-10-24T06:04:50.617Z,100.00
2022-10-24T06:09:53.735Z,100.00
2022-10-24T06:14:57.005Z,100.00
2022-10-24T06:20:00.915Z,100.00
2022-10-24T06:25:03.503Z,100.00
2022-10-24T06:30:07.890Z,100.00
2022-10-24T06:35:13.228Z,100.00
2022-10-24T06:40:16.008Z,100.00
2022-10-24T06:45:21.206Z,100.00
2022-10-24T06:50:25.179Z,100.00
2022-10-24T06:55:27.862Z,100.00
2022-10-24T07:00:30.457Z,100.00
2022-10-24T07:05:34.455Z,100.00
2022-10-24T07:10:37.134Z,100.00
2022-10-24T07:15:39.758Z,100.00
2022-10-24T07:20:43.667Z,100.00
2022-10-24T07:25:46.523Z,100.00
2022-10-24T07:30:49.091Z,100.00
2022-10-24T07:35:53.015Z,100.00
2022-10-24T07:40:55.669Z,100.00
2022-10-24T07:45:58.402Z,100.00
2022-10-24T07:51:06.287Z,100.00
2022-10-24T07:56:10.469Z,100.00
2022-10-24T08:01:15.563Z,100.00
2022-10-24T08:06:21.455Z,100.00
2022-10-24T08:11:25.495Z,100.00
2022-10-24T08:16:28.065Z,100.00
2022-10-24T08:21:33.426Z,100.00
2022-10-24T08:26:36.620Z,100.00
2022-10-24T08:31:39.650Z,100.00
2022-10-24T08:36:43.716Z,100.00
2022-10-24T08:41:48.814Z,100.00
2022-10-24T08:46:53.985Z,100.00
2022-10-24T08:52:00.306Z,100.00
2022-10-24T08:57:02.918Z,100.00
2022-10-24T09:02:07.984Z,100.00
2022-10-24T09:07:19.121Z,100.00
2022-10-24T09:12:22.743Z,100.00
2022-10-24T09:17:26.459Z,100.00
2022-10-24T09:22:33.399Z,100.00
2022-10-24T09:27:37.942Z,100.00
2022-10-24T09:32:42.142Z,100.00
2022-10-24T09:37:49.038Z,100.00
2022-10-24T09:42:55.079Z,100.00
2022-10-24T09:47:58.604Z,100.00
2022-10-24T09:53:04.090Z,100.00
2022-10-24T09:58:06.661Z,100.00
2022-10-24T10:03:24.085Z,100.00
2022-10-24T10:08:30.111Z,100.00
2022-10-24T10:13:38.202Z,100.00
2022-10-24T10:18:48.377Z,100.00
2022-10-24T10:23:53.813Z,100.00
2022-10-24T10:28:59.739Z,100.00
2022-10-24T10:34:16.057Z,100.00
2022-10-24T10:39:34.702Z,100.00
2022-10-24T10:44:48.098Z,100.00
2022-10-24T10:49:55.848Z,100.00
2022-10-24T10:55:19.712Z,100.00
2022-10-24T11:00:24.480Z,100.00
2022-10-24T11:05:40.227Z,100.00
2022-10-24T11:10:47.083Z,100.00
2022-10-24T11:15:52.519Z,100.00
2022-10-24T11:20:58.177Z,100.00
2022-10-24T11:26:04.692Z,100.00
2022-10-24T11:31:07.990Z,100.00
2022-10-24T11:36:19.178Z,100.00
2022-10-24T11:41:48.142Z,100.00
2022-10-24T11:46:54.467Z,100.00
2022-10-24T11:51:58.767Z,100.00
2022-10-24T11:57:04.282Z,100.00
2022-10-24T12:02:39.393Z,100.00
2022-10-24T12:08:07.100Z,100.00
2022-10-24T12:13:37.869Z,100.00
2022-10-24T12:18:42.391Z,100.00
2022-10-24T12:23:53.968Z,100.00
2022-10-24T12:28:59.411Z,100.00
2022-10-24T12:34:38.339Z,100.00
2022-10-24T12:39:45.765Z,100.00
2022-10-24T12:44:52.006Z,100.00
2022-10-24T12:49:54.776Z,100.00
2022-10-24T12:54:57.887Z,100.00
2022-10-24T13:00:02.528Z,100.00
2022-10-24T13:05:15.706Z,100.00
2022-10-24T13:10:31.623Z,100.00
2022-10-24T13:15:42.771Z,100.00
2022-10-24T13:20:46.757Z,100.00
2022-10-24T13:25:56.447Z,100.00
2022-10-24T13:31:32.078Z,100.00
2022-10-24T13:36:36.034Z,100.00
2022-10-24T13:41:41.546Z,100.00
2022-10-24T13:46:50.235Z,100.00
2022-10-24T13:52:01.600Z,100.00
2022-10-24T13:57:04.656Z,100.00
2022-10-24T14:02:14.727Z,100.00
2022-10-24T14:07:20.698Z,100.00
2022-10-24T14:12:26.091Z,100.00
2022-10-24T14:17:30.719Z,100.00
2022-10-24T14:22:39.699Z,100.00
2022-10-24T14:27:42.944Z,100.00
2022-10-24T14:32:45.688Z,100.00
2022-10-24T14:37:49.644Z,100.00
2022-10-24T14:42:52.859Z,100.00
2022-10-24T14:47:56.811Z,100.00
2022-10-24T14:53:21.317Z,100.00
2022-10-24T14:58:25.917Z,100.00
2022-10-24T15:03:29.606Z,100.00
2022-10-24T15:08:39.051Z,100.00
2022-10-24T15:13:50.919Z,100.00
2022-10-24T15:19:04.040Z,100.00
2022-10-24T15:24:17.710Z,100.00
2022-10-24T15:29:21.736Z,100.00
2022-10-24T15:34:27.146Z,100.00
2022-10-24T15:39:31.433Z,100.00
2022-10-24T15:44:35.435Z,100.00
2022-10-24T15:49:38.016Z,100.00
2022-10-24T15:54:42.650Z,100.00
2022-10-24T15:59:45.261Z,100.00
2022-10-24T16:04:48.068Z,100.00
2022-10-24T16:09:52.076Z,100.00
2022-10-24T16:14:54.648Z,100.00
2022-10-24T16:19:57.249Z,100.00
2022-10-24T16:25:01.222Z,100.00
2022-10-24T16:30:03.845Z,100.00
2022-10-24T16:35:07.682Z,100.00
2022-10-24T16:40:12.405Z,100.00
2022-10-24T16:45:15.031Z,100.00
2022-10-24T16:50:23.687Z,100.00
2022-10-24T16:55:28.562Z,100.00
2022-10-24T17:00:31.192Z,100.00
2022-10-24T17:05:33.814Z,100.00
2022-10-24T17:10:38.121Z,100.00
2022-10-24T17:15:40.719Z,100.00
2022-10-24T17:20:44.271Z,100.00
2022-10-24T17:25:48.708Z,100.00
2022-10-24T17:35:59.127Z,100.00
2022-10-24T17:41:09.112Z,100.00
2022-10-24T17:46:13.471Z,100.00
2022-10-24T17:51:17.790Z,100.00
2022-10-24T17:56:24.808Z,100.00
2022-10-24T18:01:28.470Z,100.00
2022-10-24T18:06:31.196Z,100.00
2022-10-24T18:11:35.149Z,100.00
2022-10-24T18:16:38.811Z,100.00
2022-10-24T18:21:41.378Z,100.00
2022-10-24T18:26:47.671Z,100.00
2022-10-24T18:31:50.260Z,100.00
2022-10-24T18:36:52.842Z,100.00
2022-10-24T18:41:58.169Z,100.00
2022-10-24T18:47:02.563Z,100.00
2022-10-24T18:52:14.660Z,100.00
2022-10-24T18:57:22.886Z,100.00
2022-10-24T19:02:29.494Z,100.00
2022-10-24T19:07:32.463Z,100.00
2022-10-24T19:12:36.744Z,100.00
2022-10-24T19:17:39.376Z,100.00
2022-10-24T19:22:42.206Z,100.00
2022-10-24T19:27:46.276Z,100.00
2022-10-24T19:32:49.220Z,100.00
2022-10-24T19:37:51.950Z,100.00
2022-10-24T19:42:55.945Z,100.00
2022-10-24T19:47:59.638Z,100.00
2022-10-24T19:53:02.411Z,100.00
2022-10-24T19:58:09.798Z,100.00
2022-10-24T20:03:12.398Z,100.00
2022-10-24T20:08:15.096Z,100.00
2022-10-24T20:13:19.131Z,100.00
2022-10-24T20:18:22.066Z,100.00
2022-10-24T20:23:25.510Z,100.00
2022-10-24T20:28:29.657Z,100.00
2022-10-24T20:33:32.243Z,100.00
2022-10-24T20:38:34.838Z,100.00
2022-10-24T20:43:38.840Z,100.00
2022-10-24T20:48:41.458Z,100.00
2022-10-24T20:53:44.452Z,100.00
2022-10-24T20:58:48.382Z,100.00
2022-10-24T21:03:51.921Z,100.00
2022-10-24T21:08:56.667Z,100.00
2022-10-24T21:14:02.325Z,100.00
2022-10-24T21:19:05.220Z,100.00
2022-10-24T21:24:08.598Z,100.00
2022-10-24T21:29:32.256Z,100.00
2022-10-24T21:34:35.234Z,100.00
2022-10-24T21:39:37.827Z,100.00
2022-10-24T21:44:41.764Z,100.00
2022-10-24T21:49:44.337Z,100.00
2022-10-24T21:54:46.939Z,100.00
2022-10-24T21:59:50.845Z,100.00
2022-10-24T22:04:53.404Z,95.77
2022-10-24T22:09:55.970Z,89.96
2022-10-24T22:14:59.878Z,82.48
2022-10-24T22:20:02.430Z,77.76
2022-10-24T22:25:05.683Z,73.85
2022-10-24T22:30:10.633Z,71.34
2022-10-24T22:35:14.484Z,67.14
2022-10-24T22:40:23.163Z,64.71
2022-10-24T22:45:28.160Z,62.19
2022-10-24T22:50:48.899Z,60.47
2022-10-24T22:56:12.245Z,59.73
2022-10-24T23:01:26.183Z,58.25
2022-10-24T23:06:34.903Z,57.06
2022-10-24T23:11:37.944Z,55.51
2022-10-24T23:16:47.331Z,54.96
2022-10-24T23:21:53.366Z,54.35
2022-10-24T23:27:21.691Z,53.89
2022-10-24T23:32:27.841Z,52.83
2022-10-24T23:37:33.853Z,52.17
2022-10-24T23:42:36.996Z,51.82
2022-10-24T23:47:56.287Z,51.09
2022-10-24T23:53:12.324Z,50.83
2022-10-24T23:58:14.898Z,50.65
